Terminal Aerodrome Forecast
Issued by NWS

Home | Current Version | Previous Version | Text Only | Print | Product List | Glossary On
Versions: 1 2 3 4 5 6 7 8 9 10 11 12 13
596
FTUS46 KHNX 200724 AAA
TAFVIS
TAF AMD
KVIS 200724Z 2007/2106 13006KT P6SM OVC050
      TEMPO 2007/2010 3SM -RA BR
     FM201500 13014G21KT P6SM -RA OVC050=

USA.gov is the U.S. government's official web portal to all federal, state and local government web resources and services.